sensor_id;sensor_type;location;lat;lon;timestamp;P1;durP1;ratioP1;P2;durP2;ratioP2
4377;SDS011;2203;53.686;9.994;2023-10-09T00:00:59;6.47;;;3.40;;
4377;SDS011;2203;53.686;9.994;2023-10-09T00:03:30;3.67;;;2.03;;
4377;SDS011;2203;53.686;9.994;2023-10-09T00:05:56;3.40;;;2.10;;
4377;SDS011;2203;53.686;9.994;2023-10-09T00:08:22;3.67;;;2.07;;
4377;SDS011;2203;53.686;9.994;2023-10-09T00:10:55;6.40;;;2.33;;
4377;SDS011;2203;53.686;9.994;2023-10-09T00:13:22;9.77;;;2.23;;
4377;SDS011;2203;53.686;9.994;2023-10-09T00:15:58;3.60;;;1.80;;
4377;SDS011;2203;53.686;9.994;2023-10-09T00:18:38;3.67;;;2.20;;
4377;SDS011;2203;53.686;9.994;2023-10-09T00:21:04;5.07;;;2.20;;
4377;SDS011;2203;53.686;9.994;2023-10-09T00:23:40;3.53;;;1.63;;
4377;SDS011;2203;53.686;9.994;2023-10-09T00:26:06;11.70;;;2.43;;
4377;SDS011;2203;53.686;9.994;2023-10-09T00:28:41;1.90;;;1.53;;
4377;SDS011;2203;53.686;9.994;2023-10-09T00:31:11;13.30;;;2.73;;
4377;SDS011;2203;53.686;9.994;2023-10-09T00:33:41;3.20;;;1.50;;
4377;SDS011;2203;53.686;9.994;2023-10-09T00:36:09;12.97;;;1.97;;
4377;SDS011;2203;53.686;9.994;2023-10-09T00:38:36;5.07;;;1.60;;
4377;SDS011;2203;53.686;9.994;2023-10-09T00:41:04;4.93;;;1.93;;
4377;SDS011;2203;53.686;9.994;2023-10-09T00:43:30;6.13;;;2.37;;
4377;SDS011;2203;53.686;9.994;2023-10-09T00:45:59;4.27;;;2.57;;
4377;SDS011;2203;53.686;9.994;2023-10-09T00:48:37;7.70;;;2.00;;
4377;SDS011;2203;53.686;9.994;2023-10-09T00:51:06;10.00;;;1.80;;
4377;SDS011;2203;53.686;9.994;2023-10-09T00:53:50;9.70;;;2.60;;
4377;SDS011;2203;53.686;9.994;2023-10-09T00:56:21;3.47;;;2.30;;
4377;SDS011;2203;53.686;9.994;2023-10-09T00:58:50;5.87;;;1.80;;
4377;SDS011;2203;53.686;9.994;2023-10-09T01:01:21;5.03;;;2.57;;
4377;SDS011;2203;53.686;9.994;2023-10-09T01:03:52;3.97;;;1.70;;
4377;SDS011;2203;53.686;9.994;2023-10-09T01:06:17;15.63;;;2.20;;
4377;SDS011;2203;53.686;9.994;2023-10-09T01:08:46;3.00;;;2.00;;
4377;SDS011;2203;53.686;9.994;2023-10-09T01:11:25;6.60;;;2.20;;
4377;SDS011;2203;53.686;9.994;2023-10-09T01:13:55;8.10;;;1.73;;
4377;SDS011;2203;53.686;9.994;2023-10-09T01:16:36;4.37;;;1.80;;
4377;SDS011;2203;53.686;9.994;2023-10-09T01:19:02;9.53;;;2.10;;
4377;SDS011;2203;53.686;9.994;2023-10-09T01:21:37;2.53;;;1.60;;
4377;SDS011;2203;53.686;9.994;2023-10-09T01:24:05;5.60;;;1.67;;
4377;SDS011;2203;53.686;9.994;2023-10-09T01:26:37;3.13;;;1.87;;
4377;SDS011;2203;53.686;9.994;2023-10-09T01:29:11;3.43;;;1.57;;
4377;SDS011;2203;53.686;9.994;2023-10-09T01:34:32;4.53;;;1.50;;
4377;SDS011;2203;53.686;9.994;2023-10-09T01:37:10;6.40;;;1.60;;
4377;SDS011;2203;53.686;9.994;2023-10-09T01:39:40;3.90;;;1.87;;
4377;SDS011;2203;53.686;9.994;2023-10-09T01:42:07;9.87;;;2.13;;
4377;SDS011;2203;53.686;9.994;2023-10-09T01:44:32;7.20;;;2.13;;
4377;SDS011;2203;53.686;9.994;2023-10-09T01:47:08;6.33;;;2.10;;
4377;SDS011;2203;53.686;9.994;2023-10-09T01:49:34;3.13;;;1.73;;
4377;SDS011;2203;53.686;9.994;2023-10-09T01:52:02;4.53;;;1.37;;
4377;SDS011;2203;53.686;9.994;2023-10-09T01:54:32;12.90;;;2.87;;
4377;SDS011;2203;53.686;9.994;2023-10-09T01:57:06;6.77;;;1.70;;
4377;SDS011;2203;53.686;9.994;2023-10-09T01:59:35;2.53;;;1.47;;
4377;SDS011;2203;53.686;9.994;2023-10-09T02:02:06;3.53;;;1.40;;
4377;SDS011;2203;53.686;9.994;2023-10-09T02:05:02;7.80;;;4.60;;
4377;SDS011;2203;53.686;9.994;2023-10-09T02:07:40;7.27;;;2.30;;
4377;SDS011;2203;53.686;9.994;2023-10-09T02:10:13;3.27;;;1.93;;
4377;SDS011;2203;53.686;9.994;2023-10-09T02:13:01;5.97;;;1.83;;
4377;SDS011;2203;53.686;9.994;2023-10-09T02:15:37;4.30;;;1.80;;
4377;SDS011;2203;53.686;9.994;2023-10-09T02:21:05;9.10;;;2.20;;
4377;SDS011;2203;53.686;9.994;2023-10-09T02:23:32;3.50;;;1.60;;
4377;SDS011;2203;53.686;9.994;2023-10-09T02:26:15;6.30;;;1.77;;
4377;SDS011;2203;53.686;9.994;2023-10-09T02:28:53;4.10;;;1.93;;
4377;SDS011;2203;53.686;9.994;2023-10-09T02:31:34;7.17;;;1.70;;
4377;SDS011;2203;53.686;9.994;2023-10-09T02:34:05;6.10;;;1.67;;
4377;SDS011;2203;53.686;9.994;2023-10-09T02:36:33;6.00;;;2.00;;
4377;SDS011;2203;53.686;9.994;2023-10-09T02:39:03;7.40;;;2.10;;
4377;SDS011;2203;53.686;9.994;2023-10-09T02:41:46;4.30;;;2.17;;
4377;SDS011;2203;53.686;9.994;2023-10-09T02:44:14;6.17;;;1.90;;
4377;SDS011;2203;53.686;9.994;2023-10-09T02:46:41;4.37;;;1.70;;
4377;SDS011;2203;53.686;9.994;2023-10-09T02:49:06;5.13;;;2.20;;
4377;SDS011;2203;53.686;9.994;2023-10-09T02:51:32;2.60;;;1.60;;
4377;SDS011;2203;53.686;9.994;2023-10-09T02:54:01;10.13;;;1.90;;
4377;SDS011;2203;53.686;9.994;2023-10-09T02:56:47;4.73;;;1.93;;
4377;SDS011;2203;53.686;9.994;2023-10-09T02:59:21;5.37;;;1.77;;
4377;SDS011;2203;53.686;9.994;2023-10-09T03:01:47;6.90;;;1.80;;
4377;SDS011;2203;53.686;9.994;2023-10-09T03:04:13;5.90;;;2.07;;
4377;SDS011;2203;53.686;9.994;2023-10-09T03:06:40;2.73;;;1.80;;
4377;SDS011;2203;53.686;9.994;2023-10-09T03:09:16;7.10;;;2.40;;
4377;SDS011;2203;53.686;9.994;2023-10-09T03:11:52;11.80;;;1.87;;
4377;SDS011;2203;53.686;9.994;2023-10-09T03:14:25;5.03;;;1.60;;
4377;SDS011;2203;53.686;9.994;2023-10-09T03:16:55;4.50;;;1.90;;
4377;SDS011;2203;53.686;9.994;2023-10-09T03:19:25;6.10;;;1.70;;
4377;SDS011;2203;53.686;9.994;2023-10-09T03:21:51;12.60;;;2.27;;
4377;SDS011;2203;53.686;9.994;2023-10-09T03:24:17;6.17;;;2.00;;
4377;SDS011;2203;53.686;9.994;2023-10-09T03:26:43;6.73;;;1.87;;
4377;SDS011;2203;53.686;9.994;2023-10-09T03:29:10;18.13;;;2.50;;
4377;SDS011;2203;53.686;9.994;2023-10-09T03:31:36;4.07;;;1.93;;
4377;SDS011;2203;53.686;9.994;2023-10-09T03:34:03;4.97;;;1.33;;
4377;SDS011;2203;53.686;9.994;2023-10-09T03:36:28;6.40;;;1.67;;
4377;SDS011;2203;53.686;9.994;2023-10-09T03:38:56;5.20;;;1.93;;
4377;SDS011;2203;53.686;9.994;2023-10-09T03:41:24;4.13;;;2.00;;
4377;SDS011;2203;53.686;9.994;2023-10-09T03:43:54;3.43;;;1.70;;
4377;SDS011;2203;53.686;9.994;2023-10-09T03:46:23;7.23;;;1.60;;
4377;SDS011;2203;53.686;9.994;2023-10-09T03:48:58;6.67;;;1.77;;
4377;SDS011;2203;53.686;9.994;2023-10-09T03:51:26;8.80;;;2.23;;
4377;SDS011;2203;53.686;9.994;2023-10-09T03:53:52;7.80;;;2.37;;
4377;SDS011;2203;53.686;9.994;2023-10-09T03:56:18;11.10;;;1.90;;
4377;SDS011;2203;53.686;9.994;2023-10-09T03:58:44;3.20;;;1.77;;
4377;SDS011;2203;53.686;9.994;2023-10-09T04:01:14;3.67;;;1.80;;
4377;SDS011;2203;53.686;9.994;2023-10-09T04:03:54;2.90;;;1.70;;
4377;SDS011;2203;53.686;9.994;2023-10-09T04:06:30;3.13;;;1.70;;
4377;SDS011;2203;53.686;9.994;2023-10-09T04:08:59;5.47;;;2.23;;
4377;SDS011;2203;53.686;9.994;2023-10-09T04:11:38;6.30;;;2.00;;
4377;SDS011;2203;53.686;9.994;2023-10-09T04:14:07;3.53;;;1.60;;
4377;SDS011;2203;53.686;9.994;2023-10-09T04:16:37;4.07;;;2.00;;
4377;SDS011;2203;53.686;9.994;2023-10-09T04:19:16;7.67;;;1.57;;
4377;SDS011;2203;53.686;9.994;2023-10-09T04:21:46;4.20;;;1.73;;
4377;SDS011;2203;53.686;9.994;2023-10-09T04:24:13;3.00;;;1.60;;
4377;SDS011;2203;53.686;9.994;2023-10-09T04:26:39;4.60;;;1.60;;
4377;SDS011;2203;53.686;9.994;2023-10-09T04:29:10;2.70;;;1.87;;
4377;SDS011;2203;53.686;9.994;2023-10-09T04:31:43;5.57;;;1.80;;
4377;SDS011;2203;53.686;9.994;2023-10-09T04:34:16;7.13;;;2.03;;
4377;SDS011;2203;53.686;9.994;2023-10-09T04:36:49;4.67;;;1.83;;
4377;SDS011;2203;53.686;9.994;2023-10-09T04:39:15;3.33;;;1.73;;
4377;SDS011;2203;53.686;9.994;2023-10-09T04:41:50;5.00;;;1.77;;
4377;SDS011;2203;53.686;9.994;2023-10-09T04:44:17;5.47;;;2.10;;
4377;SDS011;2203;53.686;9.994;2023-10-09T04:46:46;5.27;;;1.60;;
4377;SDS011;2203;53.686;9.994;2023-10-09T04:49:30;8.77;;;2.03;;
4377;SDS011;2203;53.686;9.994;2023-10-09T04:51:59;7.07;;;1.80;;
4377;SDS011;2203;53.686;9.994;2023-10-09T04:54:34;6.90;;;1.70;;
4377;SDS011;2203;53.686;9.994;2023-10-09T04:57:25;4.90;;;1.43;;
4377;SDS011;2203;53.686;9.994;2023-10-09T04:59:51;2.97;;;1.80;;
4377;SDS011;2203;53.686;9.994;2023-10-09T05:02:17;5.90;;;2.23;;
4377;SDS011;2203;53.686;9.994;2023-10-09T05:04:44;4.37;;;2.17;;
4377;SDS011;2203;53.686;9.994;2023-10-09T05:07:13;4.37;;;2.20;;
4377;SDS011;2203;53.686;9.994;2023-10-09T05:09:57;4.73;;;2.43;;
4377;SDS011;2203;53.686;9.994;2023-10-09T05:12:40;7.33;;;2.27;;
4377;SDS011;2203;53.686;9.994;2023-10-09T05:15:12;3.30;;;1.60;;
4377;SDS011;2203;53.686;9.994;2023-10-09T05:17:38;5.40;;;2.13;;
4377;SDS011;2203;53.686;9.994;2023-10-09T05:20:04;9.33;;;1.90;;
4377;SDS011;2203;53.686;9.994;2023-10-09T05:22:49;8.27;;;2.00;;
4377;SDS011;2203;53.686;9.994;2023-10-09T05:25:38;4.17;;;1.90;;
4377;SDS011;2203;53.686;9.994;2023-10-09T05:28:18;5.03;;;1.87;;
4377;SDS011;2203;53.686;9.994;2023-10-09T05:30:55;7.30;;;1.87;;
4377;SDS011;2203;53.686;9.994;2023-10-09T05:33:34;4.20;;;2.30;;
4377;SDS011;2203;53.686;9.994;2023-10-09T05:36:03;6.60;;;2.03;;
4377;SDS011;2203;53.686;9.994;2023-10-09T05:38:48;6.63;;;2.00;;
4377;SDS011;2203;53.686;9.994;2023-10-09T05:41:24;4.67;;;2.57;;
4377;SDS011;2203;53.686;9.994;2023-10-09T05:44:10;3.70;;;1.80;;
4377;SDS011;2203;53.686;9.994;2023-10-09T05:47:14;6.30;;;1.80;;
4377;SDS011;2203;53.686;9.994;2023-10-09T05:50:00;11.43;;;1.97;;
4377;SDS011;2203;53.686;9.994;2023-10-09T05:52:34;5.90;;;1.83;;
4377;SDS011;2203;53.686;9.994;2023-10-09T05:55:03;5.73;;;2.27;;
4377;SDS011;2203;53.686;9.994;2023-10-09T05:57:45;4.23;;;1.97;;
4377;SDS011;2203;53.686;9.994;2023-10-09T06:00:29;11.20;;;2.50;;
4377;SDS011;2203;53.686;9.994;2023-10-09T06:03:13;8.70;;;2.43;;
4377;SDS011;2203;53.686;9.994;2023-10-09T06:05:49;8.77;;;2.07;;
4377;SDS011;2203;53.686;9.994;2023-10-09T06:08:21;4.70;;;1.90;;
4377;SDS011;2203;53.686;9.994;2023-10-09T06:10:52;6.07;;;2.33;;
4377;SDS011;2203;53.686;9.994;2023-10-09T06:13:36;7.00;;;2.50;;
4377;SDS011;2203;53.686;9.994;2023-10-09T06:16:12;3.77;;;2.07;;
4377;SDS011;2203;53.686;9.994;2023-10-09T06:18:56;3.83;;;2.20;;
4377;SDS011;2203;53.686;9.994;2023-10-09T06:21:36;10.60;;;2.70;;
4377;SDS011;2203;53.686;9.994;2023-10-09T06:24:25;6.67;;;2.60;;
4377;SDS011;2203;53.686;9.994;2023-10-09T06:27:09;5.20;;;2.30;;
4377;SDS011;2203;53.686;9.994;2023-10-09T06:29:35;4.47;;;1.80;;
4377;SDS011;2203;53.686;9.994;2023-10-09T06:32:05;7.63;;;2.63;;
4377;SDS011;2203;53.686;9.994;2023-10-09T06:34:50;8.27;;;2.17;;
4377;SDS011;2203;53.686;9.994;2023-10-09T06:37:20;6.60;;;3.23;;
4377;SDS011;2203;53.686;9.994;2023-10-09T06:39:48;3.30;;;2.00;;
4377;SDS011;2203;53.686;9.994;2023-10-09T06:42:23;8.77;;;2.40;;
4377;SDS011;2203;53.686;9.994;2023-10-09T06:47:52;10.13;;;2.40;;
4377;SDS011;2203;53.686;9.994;2023-10-09T06:50:21;7.40;;;1.70;;
4377;SDS011;2203;53.686;9.994;2023-10-09T06:52:50;5.00;;;2.47;;
4377;SDS011;2203;53.686;9.994;2023-10-09T06:55:37;7.27;;;2.80;;
4377;SDS011;2203;53.686;9.994;2023-10-09T06:58:16;9.63;;;3.00;;
4377;SDS011;2203;53.686;9.994;2023-10-09T07:00:52;8.30;;;2.20;;
4377;SDS011;2203;53.686;9.994;2023-10-09T07:03:32;8.60;;;2.67;;
4377;SDS011;2203;53.686;9.994;2023-10-09T07:06:07;4.47;;;2.83;;
4377;SDS011;2203;53.686;9.994;2023-10-09T07:08:38;12.03;;;2.83;;
4377;SDS011;2203;53.686;9.994;2023-10-09T07:11:06;8.60;;;2.50;;
4377;SDS011;2203;53.686;9.994;2023-10-09T07:14:20;7.30;;;3.10;;
4377;SDS011;2203;53.686;9.994;2023-10-09T07:19:42;8.10;;;2.50;;
4377;SDS011;2203;53.686;9.994;2023-10-09T07:22:28;7.47;;;2.40;;
4377;SDS011;2203;53.686;9.994;2023-10-09T07:25:04;6.00;;;2.50;;
4377;SDS011;2203;53.686;9.994;2023-10-09T07:27:39;9.00;;;3.00;;
4377;SDS011;2203;53.686;9.994;2023-10-09T07:30:20;6.90;;;2.60;;
4377;SDS011;2203;53.686;9.994;2023-10-09T07:33:01;5.83;;;3.10;;
4377;SDS011;2203;53.686;9.994;2023-10-09T07:35:37;7.73;;;2.67;;
4377;SDS011;2203;53.686;9.994;2023-10-09T07:38:07;3.73;;;2.47;;
4377;SDS011;2203;53.686;9.994;2023-10-09T07:43:23;10.43;;;2.87;;
4377;SDS011;2203;53.686;9.994;2023-10-09T07:45:52;5.77;;;2.50;;
4377;SDS011;2203;53.686;9.994;2023-10-09T07:48:24;4.30;;;2.30;;
4377;SDS011;2203;53.686;9.994;2023-10-09T07:51:04;5.93;;;3.03;;
4377;SDS011;2203;53.686;9.994;2023-10-09T07:53:36;11.00;;;3.27;;
4377;SDS011;2203;53.686;9.994;2023-10-09T07:56:08;5.90;;;2.40;;
4377;SDS011;2203;53.686;9.994;2023-10-09T07:58:34;6.43;;;3.43;;
4377;SDS011;2203;53.686;9.994;2023-10-09T08:01:11;6.40;;;2.90;;
4377;SDS011;2203;53.686;9.994;2023-10-09T08:03:56;3.77;;;2.60;;
4377;SDS011;2203;53.686;9.994;2023-10-09T08:06:29;5.90;;;3.00;;
4377;SDS011;2203;53.686;9.994;2023-10-09T08:09:04;13.70;;;2.70;;
4377;SDS011;2203;53.686;9.994;2023-10-09T08:11:36;5.93;;;3.43;;
4377;SDS011;2203;53.686;9.994;2023-10-09T08:14:11;7.57;;;3.47;;
4377;SDS011;2203;53.686;9.994;2023-10-09T08:16:55;8.57;;;3.37;;
4377;SDS011;2203;53.686;9.994;2023-10-09T08:19:42;6.17;;;3.50;;
4377;SDS011;2203;53.686;9.994;2023-10-09T08:22:23;10.03;;;3.53;;
4377;SDS011;2203;53.686;9.994;2023-10-09T08:24:50;4.03;;;3.00;;
4377;SDS011;2203;53.686;9.994;2023-10-09T08:27:21;5.27;;;2.97;;
4377;SDS011;2203;53.686;9.994;2023-10-09T08:29:59;6.13;;;3.37;;
4377;SDS011;2203;53.686;9.994;2023-10-09T08:32:53;5.43;;;3.33;;
4377;SDS011;2203;53.686;9.994;2023-10-09T08:35:51;7.70;;;3.33;;
4377;SDS011;2203;53.686;9.994;2023-10-09T08:38:20;5.83;;;3.03;;
4377;SDS011;2203;53.686;9.994;2023-10-09T08:40:48;5.20;;;3.20;;
4377;SDS011;2203;53.686;9.994;2023-10-09T08:43:19;4.60;;;3.10;;
4377;SDS011;2203;53.686;9.994;2023-10-09T08:45:45;5.93;;;3.37;;
4377;SDS011;2203;53.686;9.994;2023-10-09T08:48:12;5.60;;;3.60;;
4377;SDS011;2203;53.686;9.994;2023-10-09T08:50:41;5.37;;;3.20;;
4377;SDS011;2203;53.686;9.994;2023-10-09T08:53:09;4.07;;;3.60;;
4377;SDS011;2203;53.686;9.994;2023-10-09T08:55:36;3.93;;;3.53;;
4377;SDS011;2203;53.686;9.994;2023-10-09T08:58:02;4.63;;;3.57;;
4377;SDS011;2203;53.686;9.994;2023-10-09T09:00:35;6.90;;;3.50;;
4377;SDS011;2203;53.686;9.994;2023-10-09T09:03:02;3.27;;;2.53;;
4377;SDS011;2203;53.686;9.994;2023-10-09T09:05:28;7.73;;;3.40;;
4377;SDS011;2203;53.686;9.994;2023-10-09T09:07:54;4.90;;;3.10;;
4377;SDS011;2203;53.686;9.994;2023-10-09T09:10:30;7.00;;;2.97;;
4377;SDS011;2203;53.686;9.994;2023-10-09T09:13:04;5.20;;;3.10;;
4377;SDS011;2203;53.686;9.994;2023-10-09T09:15:30;3.60;;;2.73;;
4377;SDS011;2203;53.686;9.994;2023-10-09T09:18:03;8.23;;;2.97;;
4377;SDS011;2203;53.686;9.994;2023-10-09T09:20:34;3.40;;;2.60;;
4377;SDS011;2203;53.686;9.994;2023-10-09T09:23:05;6.87;;;2.90;;
4377;SDS011;2203;53.686;9.994;2023-10-09T09:25:46;5.13;;;2.30;;
4377;SDS011;2203;53.686;9.994;2023-10-09T09:28:13;4.37;;;3.07;;
4377;SDS011;2203;53.686;9.994;2023-10-09T09:30:45;4.30;;;3.00;;
4377;SDS011;2203;53.686;9.994;2023-10-09T09:36:03;3.37;;;2.73;;
4377;SDS011;2203;53.686;9.994;2023-10-09T09:38:30;3.67;;;2.80;;
4377;SDS011;2203;53.686;9.994;2023-10-09T09:41:07;2.43;;;2.13;;
4377;SDS011;2203;53.686;9.994;2023-10-09T09:43:33;4.83;;;3.00;;
4377;SDS011;2203;53.686;9.994;2023-10-09T09:46:00;9.30;;;2.93;;
4377;SDS011;2203;53.686;9.994;2023-10-09T09:48:29;4.97;;;2.77;;
4377;SDS011;2203;53.686;9.994;2023-10-09T09:50:57;2.30;;;1.83;;
4377;SDS011;2203;53.686;9.994;2023-10-09T09:53:22;7.30;;;2.37;;
4377;SDS011;2203;53.686;9.994;2023-10-09T09:55:52;2.07;;;1.67;;
4377;SDS011;2203;53.686;9.994;2023-10-09T09:58:22;2.30;;;1.93;;
4377;SDS011;2203;53.686;9.994;2023-10-09T10:00:57;3.60;;;2.40;;
4377;SDS011;2203;53.686;9.994;2023-10-09T10:05:58;3.13;;;2.67;;
4377;SDS011;2203;53.686;9.994;2023-10-09T10:08:24;2.80;;;2.43;;
4377;SDS011;2203;53.686;9.994;2023-10-09T10:10:58;3.40;;;2.13;;
4377;SDS011;2203;53.686;9.994;2023-10-09T10:16:10;2.90;;;2.37;;
4377;SDS011;2203;53.686;9.994;2023-10-09T10:18:54;4.50;;;2.13;;
4377;SDS011;2203;53.686;9.994;2023-10-09T10:21:46;3.80;;;2.10;;
4377;SDS011;2203;53.686;9.994;2023-10-09T10:27:16;4.03;;;2.10;;
4377;SDS011;2203;53.686;9.994;2023-10-09T10:33:01;3.27;;;2.23;;
4377;SDS011;2203;53.686;9.994;2023-10-09T10:35:37;2.43;;;2.20;;
4377;SDS011;2203;53.686;9.994;2023-10-09T10:40:50;2.40;;;1.87;;
4377;SDS011;2203;53.686;9.994;2023-10-09T10:43:23;1.63;;;1.53;;
4377;SDS011;2203;53.686;9.994;2023-10-09T10:46:11;2.30;;;1.73;;
4377;SDS011;2203;53.686;9.994;2023-10-09T10:49:04;4.77;;;1.70;;
4377;SDS011;2203;53.686;9.994;2023-10-09T10:51:40;2.40;;;1.57;;
4377;SDS011;2203;53.686;9.994;2023-10-09T10:54:08;1.40;;;1.30;;
4377;SDS011;2203;53.686;9.994;2023-10-09T10:57:16;2.13;;;1.70;;
4377;SDS011;2203;53.686;9.994;2023-10-09T10:59:45;2.30;;;2.10;;
4377;SDS011;2203;53.686;9.994;2023-10-09T11:02:11;3.10;;;2.00;;
4377;SDS011;2203;53.686;9.994;2023-10-09T11:04:37;2.03;;;1.80;;
4377;SDS011;2203;53.686;9.994;2023-10-09T11:07:09;2.50;;;1.70;;
4377;SDS011;2203;53.686;9.994;2023-10-09T11:09:47;2.00;;;1.70;;
4377;SDS011;2203;53.686;9.994;2023-10-09T11:12:23;4.33;;;1.83;;
4377;SDS011;2203;53.686;9.994;2023-10-09T11:14:49;1.67;;;1.33;;
4377;SDS011;2203;53.686;9.994;2023-10-09T11:17:59;3.10;;;1.90;;
4377;SDS011;2203;53.686;9.994;2023-10-09T11:20:50;1.53;;;1.43;;
4377;SDS011;2203;53.686;9.994;2023-10-09T11:23:28;2.90;;;2.00;;
4377;SDS011;2203;53.686;9.994;2023-10-09T11:26:04;3.13;;;1.67;;
4377;SDS011;2203;53.686;9.994;2023-10-09T11:29:08;1.43;;;1.33;;
4377;SDS011;2203;53.686;9.994;2023-10-09T11:31:42;1.70;;;1.60;;
4377;SDS011;2203;53.686;9.994;2023-10-09T11:34:32;2.10;;;1.33;;
4377;SDS011;2203;53.686;9.994;2023-10-09T11:37:00;2.43;;;1.90;;
4377;SDS011;2203;53.686;9.994;2023-10-09T11:39:41;2.65;;;2.00;;
4377;SDS011;2203;53.686;9.994;2023-10-09T11:42:19;1.50;;;1.37;;
4377;SDS011;2203;53.686;9.994;2023-10-09T11:45:07;2.23;;;1.60;;
4377;SDS011;2203;53.686;9.994;2023-10-09T11:47:49;1.73;;;1.37;;
4377;SDS011;2203;53.686;9.994;2023-10-09T11:50:43;2.20;;;1.40;;
4377;SDS011;2203;53.686;9.994;2023-10-09T11:53:18;1.90;;;1.60;;
4377;SDS011;2203;53.686;9.994;2023-10-09T11:55:50;1.63;;;1.30;;
4377;SDS011;2203;53.686;9.994;2023-10-09T11:58:17;1.70;;;1.60;;
4377;SDS011;2203;53.686;9.994;2023-10-09T12:00:55;1.80;;;1.60;;
4377;SDS011;2203;53.686;9.994;2023-10-09T12:03:24;1.93;;;1.83;;
4377;SDS011;2203;53.686;9.994;2023-10-09T12:05:59;1.67;;;1.57;;
4377;SDS011;2203;53.686;9.994;2023-10-09T12:08:38;2.53;;;2.03;;
4377;SDS011;2203;53.686;9.994;2023-10-09T12:11:07;4.93;;;1.67;;
4377;SDS011;2203;53.686;9.994;2023-10-09T12:13:37;3.10;;;2.30;;
4377;SDS011;2203;53.686;9.994;2023-10-09T12:16:08;5.33;;;2.30;;
4377;SDS011;2203;53.686;9.994;2023-10-09T12:18:40;1.93;;;1.70;;
4377;SDS011;2203;53.686;9.994;2023-10-09T12:21:06;1.63;;;1.53;;
4377;SDS011;2203;53.686;9.994;2023-10-09T12:23:32;1.97;;;1.77;;
4377;SDS011;2203;53.686;9.994;2023-10-09T12:26:03;3.07;;;2.20;;
4377;SDS011;2203;53.686;9.994;2023-10-09T12:28:29;2.40;;;1.60;;
4377;SDS011;2203;53.686;9.994;2023-10-09T12:30:55;1.90;;;1.73;;
4377;SDS011;2203;53.686;9.994;2023-10-09T12:33:26;3.27;;;2.17;;
4377;SDS011;2203;53.686;9.994;2023-10-09T12:35:53;2.03;;;1.83;;
4377;SDS011;2203;53.686;9.994;2023-10-09T12:38:25;2.20;;;2.00;;
4377;SDS011;2203;53.686;9.994;2023-10-09T12:41:06;2.20;;;1.97;;
4377;SDS011;2203;53.686;9.994;2023-10-09T12:43:44;4.33;;;2.60;;
4377;SDS011;2203;53.686;9.994;2023-10-09T12:46:11;2.80;;;2.43;;
4377;SDS011;2203;53.686;9.994;2023-10-09T12:48:41;9.93;;;2.17;;
4377;SDS011;2203;53.686;9.994;2023-10-09T12:51:12;2.03;;;1.83;;
4377;SDS011;2203;53.686;9.994;2023-10-09T12:53:44;3.77;;;2.10;;
4377;SDS011;2203;53.686;9.994;2023-10-09T12:56:10;2.87;;;2.13;;
4377;SDS011;2203;53.686;9.994;2023-10-09T12:58:37;2.40;;;2.20;;
4377;SDS011;2203;53.686;9.994;2023-10-09T13:01:03;2.80;;;2.20;;
4377;SDS011;2203;53.686;9.994;2023-10-09T13:03:35;2.03;;;1.90;;
4377;SDS011;2203;53.686;9.994;2023-10-09T13:06:03;3.70;;;2.80;;
4377;SDS011;2203;53.686;9.994;2023-10-09T13:08:35;2.80;;;2.10;;
4377;SDS011;2203;53.686;9.994;2023-10-09T13:11:19;3.43;;;2.50;;
4377;SDS011;2203;53.686;9.994;2023-10-09T13:13:45;3.73;;;2.20;;
4377;SDS011;2203;53.686;9.994;2023-10-09T13:16:19;2.93;;;2.70;;
4377;SDS011;2203;53.686;9.994;2023-10-09T13:18:52;3.70;;;2.00;;
4377;SDS011;2203;53.686;9.994;2023-10-09T13:21:19;3.23;;;1.77;;
4377;SDS011;2203;53.686;9.994;2023-10-09T13:23:45;2.50;;;2.30;;
4377;SDS011;2203;53.686;9.994;2023-10-09T13:26:18;2.10;;;2.00;;
4377;SDS011;2203;53.686;9.994;2023-10-09T13:28:45;2.33;;;2.13;;
4377;SDS011;2203;53.686;9.994;2023-10-09T13:31:11;2.73;;;2.47;;
4377;SDS011;2203;53.686;9.994;2023-10-09T13:33:39;2.70;;;2.30;;
4377;SDS011;2203;53.686;9.994;2023-10-09T13:36:05;3.13;;;2.70;;
4377;SDS011;2203;53.686;9.994;2023-10-09T13:38:41;2.57;;;2.30;;
4377;SDS011;2203;53.686;9.994;2023-10-09T13:41:08;3.63;;;1.97;;
4377;SDS011;2203;53.686;9.994;2023-10-09T13:43:38;2.20;;;2.00;;
4377;SDS011;2203;53.686;9.994;2023-10-09T13:46:06;2.97;;;2.57;;
4377;SDS011;2203;53.686;9.994;2023-10-09T13:48:33;3.07;;;2.73;;
4377;SDS011;2203;53.686;9.994;2023-10-09T13:51:03;3.47;;;3.17;;
4377;SDS011;2203;53.686;9.994;2023-10-09T13:53:33;3.90;;;3.00;;
4377;SDS011;2203;53.686;9.994;2023-10-09T13:56:10;4.60;;;3.17;;
4377;SDS011;2203;53.686;9.994;2023-10-09T13:58:39;5.10;;;3.37;;
4377;SDS011;2203;53.686;9.994;2023-10-09T14:01:08;3.50;;;3.20;;
4377;SDS011;2203;53.686;9.994;2023-10-09T14:03:34;4.93;;;3.70;;
4377;SDS011;2203;53.686;9.994;2023-10-09T14:05:59;5.53;;;3.33;;
4377;SDS011;2203;53.686;9.994;2023-10-09T14:08:35;3.80;;;3.37;;
4377;SDS011;2203;53.686;9.994;2023-10-09T14:11:06;3.90;;;3.50;;
4377;SDS011;2203;53.686;9.994;2023-10-09T14:13:38;4.57;;;3.73;;
4377;SDS011;2203;53.686;9.994;2023-10-09T14:16:04;5.63;;;3.80;;
4377;SDS011;2203;53.686;9.994;2023-10-09T14:18:29;5.30;;;3.87;;
4377;SDS011;2203;53.686;9.994;2023-10-09T14:20:55;4.33;;;3.63;;
4377;SDS011;2203;53.686;9.994;2023-10-09T14:23:21;5.67;;;3.60;;
4377;SDS011;2203;53.686;9.994;2023-10-09T14:25:47;6.43;;;4.07;;
4377;SDS011;2203;53.686;9.994;2023-10-09T14:28:14;5.27;;;4.13;;
4377;SDS011;2203;53.686;9.994;2023-10-09T14:30:44;3.60;;;3.30;;
4377;SDS011;2203;53.686;9.994;2023-10-09T14:33:11;4.60;;;3.30;;
4377;SDS011;2203;53.686;9.994;2023-10-09T14:35:47;6.70;;;3.93;;
4377;SDS011;2203;53.686;9.994;2023-10-09T14:38:13;8.67;;;4.27;;
4377;SDS011;2203;53.686;9.994;2023-10-09T14:40:43;7.03;;;4.97;;
4377;SDS011;2203;53.686;9.994;2023-10-09T14:43:09;5.27;;;4.03;;
4377;SDS011;2203;53.686;9.994;2023-10-09T14:45:47;7.40;;;4.23;;
4377;SDS011;2203;53.686;9.994;2023-10-09T14:48:18;5.97;;;4.20;;
4377;SDS011;2203;53.686;9.994;2023-10-09T14:50:47;6.37;;;3.60;;
4377;SDS011;2203;53.686;9.994;2023-10-09T14:53:14;5.47;;;3.90;;
4377;SDS011;2203;53.686;9.994;2023-10-09T14:55:40;6.17;;;4.67;;
4377;SDS011;2203;53.686;9.994;2023-10-09T14:58:10;5.27;;;3.67;;
4377;SDS011;2203;53.686;9.994;2023-10-09T15:00:36;5.13;;;3.87;;
4377;SDS011;2203;53.686;9.994;2023-10-09T15:03:01;6.27;;;4.00;;
4377;SDS011;2203;53.686;9.994;2023-10-09T15:05:28;7.87;;;4.10;;
4377;SDS011;2203;53.686;9.994;2023-10-09T15:07:56;4.20;;;3.80;;
4377;SDS011;2203;53.686;9.994;2023-10-09T15:10:22;7.53;;;4.13;;
4377;SDS011;2203;53.686;9.994;2023-10-09T15:12:49;8.53;;;4.70;;
4377;SDS011;2203;53.686;9.994;2023-10-09T15:15:14;7.53;;;4.70;;
4377;SDS011;2203;53.686;9.994;2023-10-09T15:17:41;6.13;;;4.13;;
4377;SDS011;2203;53.686;9.994;2023-10-09T15:20:10;11.47;;;3.83;;
4377;SDS011;2203;53.686;9.994;2023-10-09T15:22:43;5.80;;;4.77;;
4377;SDS011;2203;53.686;9.994;2023-10-09T15:25:09;7.07;;;4.67;;
4377;SDS011;2203;53.686;9.994;2023-10-09T15:27:39;7.90;;;4.57;;
4377;SDS011;2203;53.686;9.994;2023-10-09T15:30:06;6.53;;;4.63;;
4377;SDS011;2203;53.686;9.994;2023-10-09T15:32:39;7.17;;;5.40;;
4377;SDS011;2203;53.686;9.994;2023-10-09T15:35:07;6.43;;;5.80;;
4377;SDS011;2203;53.686;9.994;2023-10-09T15:37:35;9.23;;;5.93;;
4377;SDS011;2203;53.686;9.994;2023-10-09T15:40:01;11.10;;;7.43;;
4377;SDS011;2203;53.686;9.994;2023-10-09T15:42:39;6.30;;;5.37;;
4377;SDS011;2203;53.686;9.994;2023-10-09T15:45:05;9.40;;;6.03;;
4377;SDS011;2203;53.686;9.994;2023-10-09T15:47:31;8.13;;;6.00;;
4377;SDS011;2203;53.686;9.994;2023-10-09T15:50:01;7.83;;;5.80;;
4377;SDS011;2203;53.686;9.994;2023-10-09T15:52:28;8.90;;;5.83;;
4377;SDS011;2203;53.686;9.994;2023-10-09T15:54:54;10.80;;;6.33;;
4377;SDS011;2203;53.686;9.994;2023-10-09T15:57:20;8.90;;;6.47;;
4377;SDS011;2203;53.686;9.994;2023-10-09T15:59:47;8.73;;;6.63;;
4377;SDS011;2203;53.686;9.994;2023-10-09T16:02:13;16.33;;;6.10;;
4377;SDS011;2203;53.686;9.994;2023-10-09T16:04:40;8.67;;;7.07;;
4377;SDS011;2203;53.686;9.994;2023-10-09T16:07:06;8.60;;;6.30;;
4377;SDS011;2203;53.686;9.994;2023-10-09T16:09:32;8.20;;;6.60;;
4377;SDS011;2203;53.686;9.994;2023-10-09T16:12:04;11.87;;;7.50;;
4377;SDS011;2203;53.686;9.994;2023-10-09T16:14:30;16.13;;;7.70;;
4377;SDS011;2203;53.686;9.994;2023-10-09T16:16:56;7.80;;;6.40;;
4377;SDS011;2203;53.686;9.994;2023-10-09T16:19:21;14.70;;;7.00;;